WARNING - Please set your current conddition source. Defaulted to metar

Welkom op de weersite van Veghel e.o.

Voor vele een welkome verandering , het regent weer.

Temperatuur weer onder 25 graden dus;

Einde aan de hittegolf 2018.

Deze begon op 12 juli t/m 8 augustus totaal van 28 dagen.

Het warmst was het op 26 en 27 juli met 36.6 graden.


Webcam Veghel  Webcam Veghel


Onweer radar Meer informatie blitzortung!


Regen radar Meer informatie rain snow radar


U vindt ons ook hier:

Het Weer Aktueel

European Weather Network

Weather Underground

Benelux Weer Netwerk

AWEKAS


Het weer levert geen direct gevaar op.    Er zijn geen waarschuwingen afgegeven.

METAR rapporten vliegvelden

   
EHAM - Amsterdam
Gewijzigd: 14-08-2018 12:25
Licht bewolkt  
Licht bewolkt  
   Wind: WNW 24.1 km/h
Wind: WNW 24.1 km/h
Temperatuur: 21°C
Dauwpunt: 13°C
Vochtigheid: 60%
Barometer: 1014 hPa
Bewolking: Few Clouds
Zicht: meer dan 10 km
Bewolking: Licht bewolkt 2400 ft
EHAM 141025Z 29013KT 9999 FEW024 21/13 Q1014 NOSIG
EHEH - Eindhoven
Gewijzigd: 14-08-2018 12:25
Gedeeltelijk bewolkt  
Gedeeltelijk bewolkt  
   Wind: WNW 14.8 km/h
Wind: WNW 14.8 km/h
Temperatuur: 22°C
Dauwpunt: 14°C
Vochtigheid: 61%
Barometer: 1014 hPa
Bewolking: Partly Cloudy
Zicht: meer dan 10 km
Bewolking: Gedeeltelijk bewolkt 3000 ft
EHEH 141025Z AUTO 29008KT 240V340 9999 SCT030 22/14 Q1014 BLU 28010KT 9999 SCT032
EHGR - Gilze/Rijen
Gewijzigd: 14-08-2018 12:25
Licht bewolkt  
Licht bewolkt  
   Wind: WNW 20.4 km/h
Wind: WNW 20.4 km/h
Temperatuur: 23°C
Dauwpunt: 12°C
Vochtigheid: 50%
Barometer: 1014 hPa
Bewolking: Few Clouds
Zicht: meer dan 10 km
Bewolking: Licht bewolkt 3600 ft
EHGR 141025Z AUTO 29011KT 260V340 9999 FEW036 23/12 Q1014 BLU 29013KT 9999 SCT030
EHBK - Maastricht
Gewijzigd: 14-08-2018 12:25
Wat regen mogelijk, Grotendeels bewolkt  
Wat regen mogelijk, Grotendeels bewolkt  
   Wind: Westen 11.1 km/h
Wind: Westen 11.1 km/h
Temperatuur: 20°C
Dauwpunt: 16°C
Vochtigheid: 78%
Barometer: 1015 hPa
Bewolking: Mostly Cloudy
Zicht: meer dan 10 km
Bewolking: Licht bewolkt 1600 ft,
Gedeeltelijk bewolkt 2500 ft,
Grotendeels bewolkt 2800 ft
EHBK 141025Z AUTO 26006KT 220V310 9999 -RA FEW016 SCT025 BKN028 20/16 Q1015 TEMPO 7000 -SHRA BKN014 FEW020TCU
EHVK - Volkel
Gewijzigd: 14-08-2018 12:55
Gedeeltelijk bewolkt  
Gedeeltelijk bewolkt  
   Wind: Westen 14.8 km/h
Wind: Westen 14.8 km/h
Temperatuur: 23°C
Dauwpunt: 13°C
Vochtigheid: 53%
Barometer: 1014 hPa
Bewolking: Partly Cloudy
Zicht: meer dan 10 km
Bewolking: Gedeeltelijk bewolkt 3500 ft
EHVK 141055Z AUTO 27008KT 240V320 9999 SCT035 23/13 Q1014 BLU 27008KT 9999 SCT032 TEMPO 29009G19KT
EHFS - Vlissingen
Gewijzigd: 14-08-2018 12:25
Bewolking  
Bewolking  
   Wind: Westen 22.2 km/h
Wind: Westen 22.2 km/h
Temperatuur: 20°C
Dauwpunt: 17°C
Vochtigheid: 83%
Barometer: 1015 hPa
Bewolking: Overcast
Zicht: meer dan 10 km
Bewolking: Grotendeels bewolkt 1200 ft,
Bewolking 1700 ft
EHFS 141025Z AUTO 27012KT 240V300 9999 BKN012/// OVC017/// 20/17 Q1015 W///H///

Script ontwikkeld door  Saratoga-weather.org Aangepast voor de template door  Weerstation Leuven

Apparatuur in gebruik:

Weerstation
Davis VP2

Weerprogramma
WeatherLink

Weercomputer
Sponsor

Webleverancier
My provider

Davis VP2

WeatherLink

Sponsor

My provider